Jemez Springs, Valles Caldera, New Mexico Weather observations

Data are for 10 minute period ending at time listed.
 Day   Time   Solar   Ave.   Ave.  Ave.  Vector  Max.   Baro.   Total    
  of    of     Rad.   Air    Rel.  Wind   Wind   Wind  Press.  Precip.   
Year   Day            Temp.  Hum.  Speed  Dir.   Gust                    
2017   (MST)  Kw/m2    F      %     mph   deg.    mph    mb.     in.     
-------------------------------------------------------------------------
 320   13:30   0.48   67.8    17    4.5   163    14.3   808.5    0.00 
 320   13:40   0.49   68.2    16    5.6   163    13.7   808.3    0.00 
 320   13:50   0.49   68.4    16    6.0    13    14.9   808.2    0.00 
 320   14:00   0.44   68.6    16    3.6   182     6.6   808.0    0.00 
 320   14:10   0.45   68.4    16    5.9    94     9.0   807.8    0.00 
 320   14:20   0.40   68.2    16    3.8   108     8.4   807.8    0.00 
 320   14:30   0.38   68.5    16    6.2   161    17.3   807.6    0.00 
 320   14:40   0.34   68.2    16    7.0   175    19.1   807.6    0.00 
 320   14:50   0.23   67.9    16    7.5   165    14.9   807.5    0.00 
 320   15:00   0.29   67.8    16    6.7   131    17.3   807.5    0.00 
 320   15:10   0.27   68.4    16    6.1   164    11.3   807.4    0.00 
 320   15:20   0.24   68.8    16    5.2   196    11.3   807.5    0.00 
 320   15:30   0.12   67.9    16    5.3   140    10.2   807.5    0.00 
 320   15:40   0.09   67.7    17    4.7   177    16.1   807.6    0.00 
 320   15:50   0.07   67.3    17    4.7   162     8.4   807.6    0.00 
 320   16:00   0.05   67.0    17    4.1   158     7.2   807.6    0.00 
 320   16:10   0.04   66.4    18    4.1   172     9.6   807.4    0.00 
 320   16:20   0.03   65.9    20    0.5   309     2.4   807.5    0.00 
 320   16:30   0.02   64.6    22    0.2   311     2.4   807.6    0.00 
 320   16:40   0.01   62.8    24    0.1   323     1.2   807.8    0.00 
 320   16:50   0.00   62.1    23    2.6   208     7.2   807.9    0.00 
 320   17:00   0.00   63.3    20    4.6   220     7.8   808.0    0.00 
 320   17:10   0.00   63.5    20    5.3   205     9.0   808.2    0.00 
 320   17:20   0.00   63.2    20    5.5   197     9.6   808.3    0.00 
 320   17:30   0.00   62.7    20    5.1   189    11.3   808.4    0.00 
 320   17:40   0.00   62.8    22    6.3   171    20.3   808.5    0.00 
 320   17:50   0.00   65.0    21   11.9   166    27.4   808.3    0.00 
 320   18:00   0.00   65.2    19    7.6   173    12.5   808.4    0.00 
 320   18:10   0.00   65.4    19    5.5   158    13.7   808.6    0.00 
 320   18:20   0.00   64.9    19    3.0   135     7.2   808.9    0.00 
 320   18:30   0.00   64.4    20    4.2   144     9.6   808.8    0.00 
 320   18:40   0.00   64.2    21    1.6    78     4.5   808.7    0.00 
 320   18:50   0.00   63.2    22    2.5   139     7.2   808.7    0.00 
 320   19:00   0.00   62.2    23    2.4    42     7.8   808.8    0.00 
 320   19:10   0.00   61.3    24    2.5   138     4.2   808.8    0.00 
 320   19:20   0.00   60.0    25    2.8   109     5.4   808.9    0.00 
 320   19:30   0.00   58.2    27    1.1   252     3.6   808.9    0.00 
 320   19:40   0.00   57.5    28    2.6   318     4.8   809.0    0.00 
 320   19:50   0.00   58.3    26    4.9    69    14.9   809.0    0.00 
 320   20:00   0.00   62.0    22    3.5     2     8.4   808.9    0.00 
 320   20:10   0.00   60.3    24    1.7   330     4.8   809.0    0.00 
 320   20:20   0.00   58.7    26    1.3    57     3.0   808.9    0.00 
 320   20:30   0.00   57.4    27    0.7    48     2.4   808.8    0.00 
 320   20:40   0.00   55.6    30    1.3    22     4.2   808.9    0.00 
 320   20:50   0.00   54.6    31    0.0     0     0.0   808.9    0.00 
 320   21:00   0.00   53.6    32    0.5    27     3.6   809.0    0.00 
 320   21:10   0.00   54.5    30    3.7    17     6.0   809.1    0.00 
 320   21:20   0.00   54.4    30    3.7    22     6.0   809.2    0.00 
 320   21:30   0.00   54.4    30    3.2     2     6.0   809.3    0.00 
 320   21:40   0.00   54.8    29    3.8   359     7.8   809.2    0.00 
 320   21:50   0.00   53.7    30    4.7    15     9.6   809.0    0.00 
 320   22:00   0.00   54.3    30    4.8     1     6.9   809.1    0.00 
 320   22:10   0.00   54.1    30    4.8     0     8.4   809.3    0.00 
 320   22:20   0.00   53.5    31    3.6    18     7.2   809.4    0.00 
 320   22:30   0.00   53.7    31    3.2    18     7.2   809.5    0.00 
 320   22:40   0.00   53.3    31    4.2    13     9.6   809.4    0.00 
 320   22:50   0.00   53.5    31    4.4    39     9.0   809.3    0.00 
 320   23:00   0.00   53.3    31    3.9    11     7.8   809.2    0.00 
 320   23:10   0.00   53.8    31    4.5   353     8.4   809.3    0.00 
 320   23:20   0.00   53.7    31    2.8    10     6.6   809.2    0.00 
 320   23:30   0.00   53.8    31    3.4    16     5.4   809.0    0.00 
 320   23:40   0.00   54.0    30    4.5     8     7.8   809.0    0.00 
 320   23:50   0.00   54.0    30    4.2    35     7.2   808.9    0.00 
 321    0:00   0.00   54.1    30    3.7   336     7.2   809.2    0.00 
 321    0:10   0.00   54.1    30    2.5    53     5.4   809.2    0.00 
 321    0:20   0.00   53.6    31    3.0    16     6.0   809.0    0.00 
 321    0:30   0.00   53.0    32    3.2   335     8.4   808.8    0.00 
 321    0:40   0.00   52.3    33    2.9    31     5.4   808.7    0.00 
 321    0:50   0.00   52.2    33    2.4    15     6.0   808.8    0.00 
 321    1:00   0.00   51.6    34    3.6    33     6.3   808.6    0.00 
 321    1:10   0.00   51.6    34    2.3    24     7.2   808.4    0.00 
 321    1:20   0.00   51.3    34    3.4    14     6.6   808.4    0.00 
 321    1:30   0.00   50.7    34    2.6    53     4.8   808.4    0.00 
 321    1:40   0.00   50.5    35    4.0    20     6.6   808.4    0.00 
 321    1:50   0.00   50.3    35    3.3    48     6.6   808.3    0.00 
 321    2:00   0.00   49.9    36    4.6    19     8.4   808.3    0.00 
 321    2:10   0.00   50.2    35    5.2    29     9.0   808.2    0.00 
 321    2:20   0.00   50.0    36    4.2    25     9.0   808.2    0.00 
 321    2:30   0.00   49.4    36    4.1    20     9.0   808.4    0.00 
 321    2:40   0.00   48.5    38    2.3    20     5.4   808.4    0.00 
 321    2:50   0.00   47.7    39    3.3    14     7.2   808.2    0.00 
 321    3:00   0.00   48.4    38    4.0     4     7.8   808.3    0.00 
 321    3:10   0.00   48.2    38    2.0    30     6.0   808.2    0.00 
 321    3:20   0.00   46.7    41    3.0    28     5.4   808.1    0.00 
 321    3:30   0.00   45.6    43    3.4     5     7.2   808.1    0.00 
 321    3:40   0.00   45.6    43    3.2    19     6.6   808.1    0.00 
 321    3:50   0.00   46.2    42    2.9    13     6.0   808.0    0.00 
 321    4:00   0.00   45.9    43    4.7    31     7.8   808.1    0.00 
 321    4:10   0.00   45.0    45    3.7    24     7.2   808.1    0.00 
 321    4:20   0.00   45.2    45    3.8    12     9.6   808.1    0.00 
 321    4:30   0.00   45.1    45    1.8    16     6.6   808.1    0.00 
 321    4:40   0.00   44.3    46    3.5    36     7.8   808.2    0.00 
 321    4:50   0.00   43.9    47    4.0    28     6.6   808.0    0.00 
 321    5:00   0.00   43.3    49    2.3   287     5.4   807.9    0.00 
 321    5:10   0.00   44.2    48    3.4    25     7.8   807.9    0.00 
 321    5:20   0.00   44.1    47    2.5     9     5.4   808.1    0.00 
 321    5:30   0.00   43.9    48    3.0    13     6.6   807.9    0.00 
 321    5:40   0.00   44.5    47    2.5     6     6.0   807.9    0.00 
 321    5:50   0.00   44.8    47    3.3   357     8.4   807.9    0.00 
 321    6:00   0.00   44.9    47    4.1    18     9.0   808.0    0.00 
 321    6:10   0.00   45.6    45    3.2    26     8.4   808.2    0.00 
 321    6:20   0.00   45.9    45    2.1    20     4.8   808.1    0.00 
 321    6:30   0.00   45.8    45    4.8    28     9.6   808.2    0.00 
 321    6:40   0.00   45.6    46    2.7    17     5.4   808.3    0.00 
 321    6:50   0.00   45.9    46    3.7    20     6.6   808.3    0.00 
 321    7:00   0.01   46.1    46    2.8    26     6.6   808.3    0.00 
 321    7:10   0.01   46.4    45    3.2    21     6.0   808.5    0.00 
 321    7:20   0.03   46.5    46    2.9    24     6.0   808.5    0.00 
 321    7:30   0.05   46.9    46    3.0    14     7.2   808.3    0.00 
 321    7:40   0.07   47.6    44    4.0    20     7.8   808.2    0.00 
 321    7:50   0.07   48.0    43    4.7    21     8.4   808.2    0.00 
 321    8:00   0.11   49.0    43    2.7     9     5.4   808.3    0.00 
 321    8:10   0.14   50.6    42    1.4   316     4.8   808.2    0.00 
 321    8:20   0.19   53.4    37    4.1    61    11.9   808.2    0.00 
 321    8:30   0.11   56.7    29    8.4   133    17.3   808.2    0.00 
 321    8:40   0.08   57.2    28    5.8   171    10.8   808.2    0.00 
 321    8:50   0.13   57.5    28    4.3   173     8.4   808.3    0.00 
 321    9:00   0.18   57.8    27    5.5   142     9.6   808.3    0.00 
 321    9:10   0.26   58.3    27    7.5   147    13.7   808.0    0.00 
 321    9:20   0.37   59.5    26    6.5   152    13.1   807.9    0.00 
 321    9:30   0.44   60.4    26    7.1   156    17.9   807.8    0.00 
 321    9:40   0.39   60.4    26    6.6   166    13.7   807.7    0.00 
 321    9:50   0.55   61.3    25    8.5   149    17.9   807.5    0.00 
 321   10:00   0.29   60.7    25    5.1   137    11.3   807.5    0.00 
 321   10:10   0.32   60.8    26    7.8   165    16.1   807.3    0.00 
 321   10:20   0.39   62.0    25    5.9   191    13.1   807.1    0.00 
 321   10:30   0.47   61.5    25    8.9   152    17.3   807.0    0.00 
 321   10:40   0.37   61.4    25   10.3   161    20.3   807.0    0.00 
 321   10:50   0.16   60.1    26    8.7   202    24.5   807.0    0.00 
 321   11:00   0.10   59.5    27    8.1   155    16.1   806.8    0.00 
 321   11:10   0.08   59.0    28    6.2   169    10.2   806.8    0.00 
 321   11:20   0.07   59.1    28    6.6   162    11.3   806.6    0.00 
 321   11:30   0.07   59.4    28    6.0   148    13.1   806.4    0.00 
 321   11:40   0.05   59.8    27    5.4   148    10.8   806.3    0.00 
 321   11:50   0.06   60.2    28    3.4   124    10.2   806.0    0.00 
 321   12:00   0.09   60.4    27    4.1   109     9.0   805.7    0.00 
 321   12:10   0.08   60.9    27    5.4   148     9.6   805.5    0.00 
 321   12:20   0.10   61.2    28    5.9   139    10.2   805.4    0.00 
 321   12:30   0.05   61.4    28    5.3   149    15.5   805.2    0.00 
 321   12:40   0.05   61.4    28    4.3   103     7.8   805.1    0.00 
 321   12:50   0.05   61.5    29    4.3   131     7.2   804.9    0.00 
 321   13:00   0.05   61.6    29    4.5   199     9.0   804.9    0.00 
 321   13:10   0.04   61.5    29    3.7   138     6.6   804.8    0.00 
 321   13:20   0.05   61.6    30    4.7   154    12.5   804.7    0.00 

Return to Jemez Springs, Valles Caldera graphs page.


Western Regional Climate Center,wrcc@dri.edu